createdAt,value
2023-03-06T00:00:19.397Z,1.673611
2023-03-06T00:05:19.617Z,1.671296
2023-03-06T00:10:19.456Z,1.650463
2023-03-06T00:15:19.552Z,1.576389
2023-03-06T00:20:19.479Z,1.543981
2023-03-06T00:25:19.118Z,1.493056
2023-03-06T00:30:19.167Z,1.451389
2023-03-06T00:35:19.192Z,1.393519
2023-03-06T00:40:19.156Z,1.333333
2023-03-06T00:45:19.125Z,1.337963
2023-03-06T00:50:19.123Z,1.348889
2023-03-06T00:55:19.167Z,1.319444
2023-03-06T01:00:19.358Z,1.275463
2023-03-06T01:05:19.167Z,1.254630
2023-03-06T01:10:19.170Z,1.243056
2023-03-06T01:15:19.092Z,1.217593
2023-03-06T01:20:19.415Z,1.194444
2023-03-06T01:25:19.509Z,1.155093
2023-03-06T01:30:19.243Z,1.115741
2023-03-06T01:35:19.274Z,1.097222
2023-03-06T01:40:19.073Z,1.078704
2023-03-06T01:45:19.741Z,1.115741
2023-03-06T01:50:19.126Z,1.159722
2023-03-06T01:55:19.111Z,1.166667
2023-03-06T02:00:19.201Z,1.196759
2023-03-06T02:05:19.378Z,1.199074
2023-03-06T02:10:19.147Z,1.164352
2023-03-06T02:15:19.092Z,1.117778
2023-03-06T02:20:19.116Z,1.090278
2023-03-06T02:25:19.224Z,1.064815
2023-03-06T02:30:19.184Z,1.150463
2023-03-06T02:35:19.108Z,1.266204
2023-03-06T02:40:19.236Z,1.354167
2023-03-06T02:45:19.101Z,1.393519
2023-03-06T02:50:19.113Z,1.437500
2023-03-06T02:55:19.054Z,1.444444
2023-03-06T03:00:19.242Z,1.442130
2023-03-06T03:05:19.253Z,1.444444
2023-03-06T03:10:19.307Z,1.409722
2023-03-06T03:15:19.038Z,1.412037
2023-03-06T03:20:19.020Z,1.446759
2023-03-06T03:25:19.265Z,1.458333
2023-03-06T03:30:19.034Z,1.444444
2023-03-06T03:35:19.307Z,1.439815
2023-03-06T03:40:19.682Z,1.444444
2023-03-06T03:45:19.457Z,1.425926
2023-03-06T03:50:19.072Z,1.418981
2023-03-06T03:55:19.027Z,1.437500
2023-03-06T04:00:19.069Z,1.416667
2023-03-06T04:05:19.112Z,1.379630
2023-03-06T04:10:19.055Z,1.344907
2023-03-06T04:15:19.283Z,1.321759
2023-03-06T04:20:19.092Z,1.277778
2023-03-06T04:25:19.215Z,1.243056
2023-03-06T04:30:19.108Z,1.180556
2023-03-06T04:35:19.545Z,1.094907
2023-03-06T04:40:19.058Z,1.023148
2023-03-06T04:45:19.379Z,0.935185
2023-03-06T04:50:19.120Z,0.928241
2023-03-06T04:55:19.164Z,0.918981
2023-03-06T05:00:19.106Z,0.861111
2023-03-06T05:05:19.036Z,0.793333
2023-03-06T05:10:19.075Z,0.763889
2023-03-06T05:15:19.117Z,0.722222
2023-03-06T05:20:19.197Z,0.696759
2023-03-06T05:25:19.740Z,0.689815
2023-03-06T05:30:19.248Z,0.722222
2023-03-06T05:35:19.285Z,0.756944
2023-03-06T05:40:19.057Z,0.777778
2023-03-06T05:45:19.075Z,0.807870
2023-03-06T05:50:19.539Z,0.831019
2023-03-06T05:55:19.057Z,0.835648
2023-03-06T06:00:19.201Z,0.842593
2023-03-06T06:05:19.084Z,0.870370
2023-03-06T06:10:19.077Z,0.844907
2023-03-06T06:15:19.044Z,0.849537
2023-03-06T06:20:19.650Z,0.909722
2023-03-06T06:25:19.029Z,0.951389
2023-03-06T06:30:18.980Z,0.960000
2023-03-06T06:35:19.202Z,0.958333
2023-03-06T06:40:19.242Z,0.956019
2023-03-06T06:45:19.002Z,0.993056
2023-03-06T06:50:18.977Z,1.023148
2023-03-06T06:55:19.025Z,1.095556
2023-03-06T07:00:19.148Z,1.185185
2023-03-06T07:05:20.857Z,1.261574
2023-03-06T07:10:20.747Z,1.296296
2023-03-06T07:15:19.052Z,1.377315
2023-03-06T07:20:19.032Z,1.449074
2023-03-06T07:25:18.981Z,1.518519
2023-03-06T07:30:19.156Z,1.557870
2023-03-06T07:35:20.647Z,1.606481
2023-03-06T07:40:19.371Z,1.673611
2023-03-06T07:45:19.013Z,1.715278
2023-03-06T07:50:19.045Z,1.752315
2023-03-06T07:55:19.588Z,1.819444
2023-03-06T08:00:19.241Z,1.849537
2023-03-06T08:05:19.065Z,1.868056
2023-03-06T08:10:19.105Z,1.893519
2023-03-06T08:15:19.146Z,1.923611
2023-03-06T08:20:18.916Z,1.932870
2023-03-06T08:25:19.034Z,1.968889
2023-03-06T08:30:19.059Z,2.101852
2023-03-06T08:35:19.181Z,2.280093
2023-03-06T08:40:19.059Z,2.437500
2023-03-06T08:45:19.011Z,2.590278
2023-03-06T08:50:16.542Z,2.680556
2023-03-06T08:55:16.597Z,2.768519
2023-03-06T09:00:16.580Z,2.858796
2023-03-06T09:05:16.703Z,2.761574
2023-03-06T09:10:16.579Z,2.724537
2023-03-06T09:15:16.530Z,2.770833
2023-03-06T09:20:16.609Z,2.731481
2023-03-06T09:25:16.449Z,2.808889
2023-03-06T09:30:16.460Z,2.907407
2023-03-06T09:35:16.783Z,2.886574
2023-03-06T09:40:16.503Z,2.740741
2023-03-06T09:45:16.631Z,2.585648
2023-03-06T09:50:17.038Z,2.460648
2023-03-06T09:55:16.556Z,2.467593
2023-03-06T10:00:16.974Z,2.622685
2023-03-06T10:05:16.619Z,2.813333
2023-03-06T10:10:17.046Z,2.926667
2023-03-06T10:15:16.572Z,3.136574
2023-03-06T10:20:16.536Z,3.442130
2023-03-06T10:25:16.733Z,3.629630
2023-03-06T10:30:16.435Z,3.736111
2023-03-06T10:35:16.685Z,3.775463
2023-03-06T10:40:16.584Z,3.657778
2023-03-06T10:45:16.446Z,3.525463
2023-03-06T10:50:16.557Z,3.791667
2023-03-06T10:55:16.406Z,4.210648
2023-03-06T11:00:16.477Z,4.055556
2023-03-06T11:05:16.926Z,3.870370
2023-03-06T11:10:16.741Z,3.754630
2023-03-06T11:15:16.389Z,3.761574
2023-03-06T11:20:16.547Z,3.884259
2023-03-06T11:25:16.574Z,3.988426
2023-03-06T11:30:16.545Z,4.083333
2023-03-06T11:35:16.432Z,4.282407
2023-03-06T11:40:16.602Z,4.474537
2023-03-06T11:45:16.481Z,4.460648
2023-03-06T11:50:16.653Z,4.317130
2023-03-06T11:55:16.843Z,4.148148
2023-03-06T12:00:16.645Z,4.312500
2023-03-06T12:05:16.796Z,4.273148
2023-03-06T12:10:16.921Z,4.192130
2023-03-06T12:15:16.651Z,4.256944
2023-03-06T12:20:16.640Z,4.231481
2023-03-06T12:25:16.547Z,4.069444
2023-03-06T12:30:16.398Z,3.895833
2023-03-06T12:35:16.676Z,4.131944
2023-03-06T12:40:16.692Z,4.523148
2023-03-06T12:45:16.484Z,4.754630
2023-03-06T12:50:16.585Z,4.717593
2023-03-06T12:55:16.439Z,4.567130
2023-03-06T13:00:16.549Z,4.428241
2023-03-06T13:05:16.685Z,4.423611
2023-03-06T13:10:16.525Z,4.488426
2023-03-06T13:15:16.500Z,4.571759
2023-03-06T13:20:16.705Z,4.613426
2023-03-06T13:25:16.817Z,4.921296
2023-03-06T13:30:16.411Z,4.944444
2023-03-06T13:35:16.477Z,4.754630
2023-03-06T13:40:16.572Z,4.574074
2023-03-06T13:45:16.395Z,4.618056
2023-03-06T13:50:16.454Z,4.685185
2023-03-06T13:55:16.790Z,4.634259
2023-03-06T14:00:16.417Z,4.863426
2023-03-06T14:05:16.616Z,5.081019
2023-03-06T14:10:16.513Z,5.101852
2023-03-06T14:15:16.405Z,5.067130
2023-03-06T14:20:16.781Z,4.988426
2023-03-06T14:25:16.444Z,4.828704
2023-03-06T14:30:16.507Z,4.715278
2023-03-06T14:35:16.655Z,4.615741
2023-03-06T14:40:16.704Z,4.611111
2023-03-06T14:45:16.354Z,4.551111
2023-03-06T14:50:16.612Z,4.037037
2023-03-06T14:55:16.510Z,3.289352
2023-03-06T15:00:16.750Z,2.622685
2023-03-06T15:05:16.977Z,1.967593
2023-03-06T15:10:19.536Z,1.615741
2023-03-06T15:15:19.330Z,1.368889
2023-03-06T15:20:19.165Z,1.247685
2023-03-06T15:25:19.107Z,1.199074
2023-03-06T15:30:19.262Z,1.212963
2023-03-06T15:35:19.233Z,1.180556
2023-03-06T15:40:18.878Z,1.194444
2023-03-06T15:45:19.184Z,1.266204
2023-03-06T15:50:19.067Z,1.282407
2023-03-06T15:55:18.850Z,1.296296
2023-03-06T16:00:27.249Z,1.333333
2023-03-06T16:05:18.961Z,1.340000
2023-03-06T16:10:18.889Z,1.335556
2023-03-06T16:15:18.997Z,1.333333
2023-03-06T16:20:19.078Z,1.328704
2023-03-06T16:25:18.930Z,1.328704
2023-03-06T16:30:19.121Z,1.284722
2023-03-06T16:35:18.988Z,1.277778
2023-03-06T16:40:18.903Z,1.252315
2023-03-06T16:45:19.160Z,1.224537
2023-03-06T16:50:18.801Z,1.212963
2023-03-06T16:55:18.950Z,1.252315
2023-03-06T17:00:19.413Z,1.317130
2023-03-06T17:05:19.565Z,1.432870
2023-03-06T17:10:18.797Z,1.518519
2023-03-06T17:15:18.999Z,1.555556
2023-03-06T17:20:19.036Z,1.557870
2023-03-06T17:25:18.949Z,1.557870
2023-03-06T17:30:18.863Z,1.548611
2023-03-06T17:35:19.246Z,1.513889
2023-03-06T17:40:19.011Z,1.462963
2023-03-06T17:45:18.913Z,1.444444
2023-03-06T17:50:18.936Z,1.444444
2023-03-06T17:55:18.915Z,1.407407
2023-03-06T18:00:19.172Z,1.391204
2023-03-06T18:05:19.641Z,1.337963
2023-03-06T18:10:19.221Z,1.319444
2023-03-06T18:15:18.827Z,1.319444
2023-03-06T18:20:18.809Z,1.275463
2023-03-06T18:25:18.802Z,1.215278
2023-03-06T18:30:18.944Z,1.120370
2023-03-06T18:35:18.918Z,0.993056
2023-03-06T18:40:19.385Z,0.881944
2023-03-06T18:45:18.964Z,0.856481
2023-03-06T18:50:18.832Z,0.956019
2023-03-06T18:55:18.773Z,1.083333
2023-03-06T19:00:18.923Z,1.143519
2023-03-06T19:05:19.057Z,1.148148
2023-03-06T19:10:18.837Z,1.092593
2023-03-06T19:15:19.547Z,1.032407
2023-03-06T19:20:18.983Z,0.997685
2023-03-06T19:25:19.280Z,0.900463
2023-03-06T19:30:18.936Z,0.810185
2023-03-06T19:35:18.882Z,0.782407
2023-03-06T19:40:18.826Z,0.856481
2023-03-06T19:45:18.784Z,0.976852
2023-03-06T19:50:18.870Z,1.034722
2023-03-06T19:55:18.765Z,1.055556
2023-03-06T20:00:18.970Z,1.106481
2023-03-06T20:05:19.069Z,1.215556
2023-03-06T20:10:18.991Z,1.307870
2023-03-06T20:15:18.720Z,1.358796
2023-03-06T20:20:18.840Z,1.351852
2023-03-06T20:25:18.833Z,1.335648
2023-03-06T20:30:18.904Z,1.363426
2023-03-06T20:35:18.905Z,1.381944
2023-03-06T20:40:18.956Z,1.354167
2023-03-06T20:45:18.942Z,1.331019
2023-03-06T20:50:19.229Z,1.289352
2023-03-06T20:55:19.027Z,1.277778
2023-03-06T21:00:19.217Z,1.282407
2023-03-06T21:05:19.734Z,1.247685
2023-03-06T21:10:18.898Z,1.182870
2023-03-06T21:15:19.043Z,1.113426
2023-03-06T21:20:19.207Z,1.090278
2023-03-06T21:25:18.758Z,1.074074
2023-03-06T21:30:19.326Z,1.166667
2023-03-06T21:35:18.726Z,1.219907
2023-03-06T21:40:19.334Z,1.210648
2023-03-06T21:45:18.679Z,1.152778
2023-03-06T21:50:18.923Z,1.134259
2023-03-06T21:55:18.883Z,1.138889
2023-03-06T22:00:18.852Z,1.111111
2023-03-06T22:05:18.843Z,1.106481
2023-03-06T22:10:18.757Z,1.030093
2023-03-06T22:15:18.949Z,0.946759
2023-03-06T22:20:18.762Z,0.953704
2023-03-06T22:25:18.974Z,0.948889
2023-03-06T22:30:19.118Z,0.893519
2023-03-06T22:35:18.846Z,0.872685
2023-03-06T22:40:18.692Z,0.914352
2023-03-06T22:45:18.887Z,0.912037
2023-03-06T22:50:18.675Z,0.928889
2023-03-06T22:55:19.038Z,1.004630
2023-03-06T23:00:19.001Z,1.030093
2023-03-06T23:05:19.617Z,1.069444
2023-03-06T23:10:18.705Z,1.023148
2023-03-06T23:15:18.892Z,0.828704
2023-03-06T23:20:18.943Z,0.743056
2023-03-06T23:25:19.100Z,0.689815
2023-03-06T23:30:18.934Z,0.708333
2023-03-06T23:35:18.782Z,0.907407
2023-03-06T23:40:18.760Z,0.942130
2023-03-06T23:45:19.144Z,0.923611
2023-03-06T23:50:18.694Z,0.865741
2023-03-06T23:55:18.828Z,0.831019
